Time;durP1;ratioP1;P1;durP2;ratioP2;P2;SDS_P1;SDS_P2;PMS_P1;PMS_P2;Temp;Humidity;BMP_temperature;BMP_pressure;BME280_temperature;BME280_humidity;BME280_pressure;Samples;Min_cycle;Max_cycle;Signal;HPM_P1;HPM_P2
2022/06/04 00:03:57;;;;;;;1.27;0.90;;;16.40;58.10;18.50;93935.00;;;;10317664;28;45091;-61
2022/06/04 00:09:21;;;;;;;2.10;0.90;;;16.40;58.30;18.50;93929.00;;;;10316990;28;45123;-61
2022/06/04 00:20:16;;;;;;;1.10;0.93;;;16.40;58.40;18.50;93923.00;;;;10291764;28;45189;-61
2022/06/04 00:25:41;;;;;;;1.02;0.80;;;16.40;58.30;18.50;93928.00;;;;10317312;28;45751;-61
2022/06/04 00:31:03;;;;;;;1.60;0.88;;;16.40;58.10;18.50;93928.00;;;;10316128;28;45183;-62
2022/06/04 00:36:24;;;;;;;1.35;0.98;;;16.40;58.40;18.50;93921.00;;;;10316478;28;45156;-61
2022/06/04 00:41:54;;;;;;;1.73;0.90;;;16.40;58.30;18.50;93907.00;;;;10316212;28;45207;-62
2022/06/04 00:47:24;;;;;;;1.30;0.90;;;16.40;58.40;18.50;93932.00;;;;10316276;28;45147;-61
2022/06/04 00:52:47;;;;;;;1.00;0.90;;;16.40;58.50;18.50;93927.00;;;;10310764;28;45764;-62
2022/06/04 00:58:40;;;;;;;1.63;0.95;;;16.40;58.40;18.50;93944.00;;;;10315107;28;45175;-62
2022/06/04 01:04:47;;;;;;;1.00;0.85;;;16.40;58.40;18.50;93943.00;;;;10315797;28;45170;-61
2022/06/04 01:10:22;;;;;;;1.20;1.00;;;16.40;58.30;18.50;93927.00;;;;10315129;28;45794;-62
2022/06/04 01:15:57;;;;;;;1.95;0.73;;;16.40;58.40;18.50;93942.00;;;;10315928;28;45108;-62
2022/06/04 01:21:25;;;;;;;1.63;1.00;;;16.30;58.30;18.50;93949.00;;;;10314253;28;45192;-61
2022/06/04 01:27:07;;;;;;;1.30;1.00;;;16.40;58.30;18.50;93956.00;;;;10315238;28;45871;-62
2022/06/04 01:32:32;;;;;;;1.20;0.77;;;16.40;58.40;18.50;93960.00;;;;10314902;28;45152;-62
2022/06/04 01:37:58;;;;;;;0.88;0.77;;;16.30;58.40;18.50;93932.00;;;;10314659;28;45232;-62
2022/06/04 01:43:22;;;;;;;1.10;0.85;;;16.30;58.40;18.40;93961.00;;;;10314859;28;45430;-61
2022/06/04 01:48:47;;;;;;;1.17;0.88;;;16.30;58.40;18.40;94067.00;;;;10314227;28;45774;-61
2022/06/04 01:54:13;;;;;;;1.40;1.00;;;16.40;58.50;18.40;94069.00;;;;10314034;28;45238;-61
2022/06/04 01:59:42;;;;;;;1.57;0.67;;;16.40;58.70;18.40;94042.00;;;;10314157;28;45815;-62
2022/06/04 02:05:08;;;;;;;1.35;0.82;;;16.40;58.70;18.50;94060.00;;;;10314163;28;45105;-63
2022/06/04 02:10:33;;;;;;;1.23;1.00;;;16.40;58.70;18.40;94013.00;;;;10313476;28;45183;-62
2022/06/04 02:16:03;;;;;;;1.02;0.80;;;16.30;58.70;18.40;93880.00;;;;10313867;28;45129;-62
2022/06/04 02:21:24;;;;;;;0.73;0.73;;;16.40;58.60;18.40;93861.00;;;;10313297;28;45301;-63
2022/06/04 02:26:45;;;;;;;1.15;0.90;;;16.40;58.40;18.40;93851.00;;;;10313115;28;45168;-61
2022/06/04 02:32:20;;;;;;;1.27;0.77;;;16.30;58.70;18.40;93853.00;;;;10312375;28;45172;-63
2022/06/04 02:37:50;;;;;;;1.98;0.80;;;16.40;58.40;18.40;93852.00;;;;10312853;28;45180;-62
2022/06/04 02:43:17;;;;;;;0.90;0.80;;;16.30;58.50;18.40;93846.00;;;;10312500;28;45132;-62
2022/06/04 02:48:42;;;;;;;1.48;0.85;;;16.30;58.50;18.40;93848.00;;;;10311901;28;45156;-62
2022/06/04 02:54:09;;;;;;;0.98;0.80;;;16.40;58.60;18.40;93844.00;;;;10312526;28;45173;-62
2022/06/04 02:59:34;;;;;;;1.17;0.75;;;16.30;58.40;18.40;93848.00;;;;10312221;28;45192;-62
2022/06/04 03:04:56;;;;;;;1.73;0.90;;;16.30;58.60;18.40;93861.00;;;;10311902;28;45208;-62
2022/06/04 03:10:21;;;;;;;0.88;0.73;;;16.30;58.40;18.40;93856.00;;;;10311623;28;45747;-62
2022/06/04 03:15:41;;;;;;;1.20;0.90;;;16.30;58.40;18.40;93846.00;;;;10312082;28;45697;-62
2022/06/04 03:21:05;;;;;;;1.20;0.80;;;16.30;58.50;18.40;93872.00;;;;10311347;28;45202;-62
2022/06/04 03:26:25;;;;;;;2.20;0.80;;;16.30;58.40;18.40;93913.00;;;;10311906;28;45764;-62
2022/06/04 03:31:46;;;;;;;1.38;0.80;;;16.30;58.50;18.40;93934.00;;;;10311696;28;46099;-61
2022/06/04 03:37:08;;;;;;;0.80;0.70;;;16.40;58.70;18.40;93939.00;;;;10311920;28;45222;-63
2022/06/04 03:42:28;;;;;;;1.30;0.60;;;16.30;58.70;18.40;93972.00;;;;10311188;28;45747;-61
2022/06/04 03:47:49;;;;;;;1.23;0.52;;;16.40;58.70;18.40;94018.00;;;;10317342;28;45219;-62
2022/06/04 03:53:11;;;;;;;1.70;0.60;;;16.40;58.80;18.40;94177.00;;;;10318036;28;45223;-63
2022/06/04 03:58:31;;;;;;;0.85;0.60;;;16.40;58.60;18.40;94201.00;;;;10318096;28;45707;-61
2022/06/04 04:03:53;;;;;;;0.90;0.80;;;16.40;59.10;18.40;94218.00;;;;10318381;28;45205;-62
2022/06/04 04:09:15;;;;;;;0.60;0.60;;;16.30;58.90;18.40;94215.00;;;;10317753;28;45193;-61
2022/06/04 04:14:35;;;;;;;0.80;0.57;;;16.40;58.90;18.40;94220.00;;;;10317879;28;45295;-61
2022/06/04 04:19:56;;;;;;;1.25;0.57;;;16.30;59.10;18.40;94214.00;;;;10316794;28;45206;-62
2022/06/04 04:25:21;;;;;;;0.70;0.43;;;16.30;59.10;18.40;94218.00;;;;10317126;28;45168;-63
2022/06/04 04:30:42;;;;;;;1.90;0.50;;;16.30;59.10;18.40;94207.00;;;;10316036;28;45210;-61
2022/06/04 04:36:02;;;;;;;1.05;0.43;;;16.30;59.10;18.40;94190.00;;;;10316339;28;45164;-61
2022/06/04 04:41:24;;;;;;;1.15;0.57;;;16.30;59.00;18.40;94125.00;;;;10316079;28;45188;-62
2022/06/04 04:46:44;;;;;;;0.82;0.70;;;16.30;59.00;18.30;94004.00;;;;10316213;28;45112;-62
2022/06/04 04:52:06;;;;;;;0.65;0.50;;;16.30;58.90;18.40;93949.00;;;;10316413;28;45687;-61
2022/06/04 04:57:28;;;;;;;0.57;0.47;;;16.30;58.60;18.40;93868.00;;;;10314700;28;45171;-60
2022/06/04 05:02:49;;;;;;;0.90;0.50;;;16.30;58.70;18.40;93881.00;;;;10315971;28;45898;-59
2022/06/04 05:08:10;;;;;;;0.85;0.52;;;16.30;58.80;18.40;93879.00;;;;10315526;28;45207;-59
2022/06/04 05:13:32;;;;;;;0.57;0.50;;;16.30;58.70;18.40;93886.00;;;;10315532;28;45407;-59
2022/06/04 05:18:52;;;;;;;1.52;0.52;;;16.30;58.80;18.40;93887.00;;;;10315678;28;45195;-59
2022/06/04 05:24:21;;;;;;;0.70;0.50;;;16.30;58.80;18.40;93925.00;;;;10315482;28;45290;-59
2022/06/04 05:29:43;;;;;;;1.02;0.60;;;16.30;58.70;18.40;93951.00;;;;10314632;28;45208;-59
2022/06/04 05:35:04;;;;;;;0.40;0.40;;;16.30;58.90;18.40;93972.00;;;;10315254;28;45715;-59
2022/06/04 05:40:25;;;;;;;0.95;0.50;;;16.30;58.90;18.40;93965.00;;;;10314766;28;45102;-60
2022/06/04 05:45:47;;;;;;;0.50;0.38;;;16.30;59.00;18.40;93976.00;;;;10314607;28;45459;-60
2022/06/04 05:51:10;;;;;;;1.23;0.50;;;16.30;59.00;18.40;94013.00;;;;10314618;28;45831;-60
2022/06/04 05:56:33;;;;;;;1.08;0.43;;;16.30;59.00;18.40;94016.00;;;;10314722;28;45384;-60
2022/06/04 06:01:55;;;;;;;0.60;0.55;;;16.30;58.70;18.40;94040.00;;;;10314743;28;45187;-59
2022/06/04 06:07:16;;;;;;;0.28;0.28;;;16.30;59.00;18.40;94035.00;;;;10313190;28;45215;-59
2022/06/04 06:12:36;;;;;;;0.85;0.40;;;16.30;58.90;18.40;94054.00;;;;10312362;28;45435;-61
2022/06/04 06:17:58;;;;;;;0.57;0.30;;;16.30;59.00;18.40;94081.00;;;;10312767;28;45758;-59
2022/06/04 06:23:18;;;;;;;0.38;0.30;;;16.30;59.00;18.40;94106.00;;;;10313280;28;45147;-59
2022/06/04 06:28:40;;;;;;;1.02;0.40;;;16.30;59.00;18.50;94111.00;;;;10313096;28;45179;-59
2022/06/04 06:34:03;;;;;;;2.65;0.50;;;16.40;59.40;18.50;94109.00;;;;10313196;28;45133;-61
2022/06/04 06:39:24;;;;;;;2.90;0.45;;;16.40;60.60;18.50;94098.00;;;;10309970;28;46103;-59
2022/06/04 06:44:44;;;;;;;3.05;0.80;;;16.40;60.60;18.50;94066.00;;;;10284960;28;45715;-58
2022/06/04 06:50:08;;;;;;;3.25;0.70;;;16.40;59.90;18.50;94072.00;;;;10288121;28;45156;-59
2022/06/04 06:55:28;;;;;;;3.20;0.60;;;16.40;59.90;18.50;94100.00;;;;10275869;28;45437;-59
2022/06/04 07:00:49;;;;;;;2.58;0.50;;;16.40;59.90;18.50;94071.00;;;;10272796;28;45187;-58
2022/06/04 07:06:13;;;;;;;2.70;0.63;;;16.40;59.90;18.50;94052.00;;;;10272478;28;45213;-58
2022/06/04 07:11:34;;;;;;;3.17;0.90;;;16.40;59.80;18.50;94038.00;;;;10272357;28;45099;-58
2022/06/04 07:16:56;;;;;;;2.90;0.55;;;16.40;60.10;18.50;94036.00;;;;10272550;28;45849;-58
2022/06/04 07:22:18;;;;;;;3.20;0.60;;;16.40;59.80;18.60;94033.00;;;;10276649;28;45212;-59
2022/06/04 07:27:39;;;;;;;2.25;0.65;;;16.50;59.80;18.50;94053.00;;;;10278423;28;45189;-59
2022/06/04 07:32:59;;;;;;;3.05;0.60;;;16.40;59.70;18.50;94053.00;;;;10279109;28;45250;-57
2022/06/04 07:38:21;;;;;;;3.22;0.50;;;16.50;59.80;18.50;94056.00;;;;10279326;28;45233;-58
2022/06/04 07:43:41;;;;;;;2.13;0.73;;;16.50;59.70;18.50;94067.00;;;;10279263;28;45765;-58
2022/06/04 07:49:04;;;;;;;1.48;0.50;;;16.40;59.70;18.50;94048.00;;;;10278724;28;45907;-59
2022/06/04 07:54:26;;;;;;;2.88;0.52;;;16.40;59.70;18.50;94060.00;;;;10278781;28;45409;-59
2022/06/04 07:59:48;;;;;;;1.88;0.60;;;16.50;59.50;18.50;94056.00;;;;10278377;28;45570;-59
2022/06/04 08:05:09;;;;;;;2.67;0.70;;;16.40;59.50;18.50;94055.00;;;;10278714;28;45252;-58
2022/06/04 08:10:31;;;;;;;3.85;0.70;;;16.40;59.30;18.50;94044.00;;;;10278374;28;45148;-58
2022/06/04 08:15:54;;;;;;;2.35;0.57;;;16.40;59.30;18.50;94033.00;;;;10277652;28;45179;-58
2022/06/04 08:21:16;;;;;;;1.95;0.40;;;16.40;59.40;18.50;94044.00;;;;10277989;28;45668;-61
2022/06/04 08:26:38;;;;;;;1.73;0.63;;;16.40;59.40;18.60;94057.00;;;;10276898;28;45244;-61
2022/06/04 08:32:00;;;;;;;1.83;0.50;;;16.40;59.30;18.50;94056.00;;;;10276303;28;45240;-60
2022/06/04 08:37:21;;;;;;;2.33;0.50;;;16.40;59.30;18.50;94043.00;;;;10276141;28;45223;-61
2022/06/04 08:42:51;;;;;;;0.45;0.35;;;16.40;59.30;18.60;94036.00;;;;10273583;28;45472;-61
2022/06/04 08:48:18;;;;;;;1.83;0.50;;;16.50;59.60;18.60;94036.00;;;;10272114;28;45242;-60
2022/06/04 08:53:40;;;;;;;1.15;0.40;;;16.40;59.80;18.50;94036.00;;;;10274473;28;45240;-59
2022/06/04 08:59:18;;;;;;;2.30;0.60;;;16.50;59.70;18.50;94032.00;;;;10274164;28;45446;-59
2022/06/04 09:05:00;;;;;;;2.72;0.50;;;16.40;59.50;18.50;94036.00;;;;10272606;28;45402;-60
2022/06/04 09:10:25;;;;;;;3.10;0.60;;;16.40;59.40;18.50;94031.00;;;;10274738;28;45155;-59
2022/06/04 09:15:50;;;;;;;4.40;0.60;;;16.40;59.40;18.50;94033.00;;;;10275094;28;45185;-60
2022/06/04 09:21:11;;;;;;;2.13;0.52;;;16.40;59.20;18.50;94025.00;;;;10275223;28;45144;-60
2022/06/04 09:26:36;;;;;;;1.95;0.52;;;16.40;59.20;18.50;94036.00;;;;10274888;28;45140;-60
2022/06/04 09:32:07;;;;;;;2.85;0.60;;;16.40;59.10;18.50;94039.00;;;;10274187;28;45234;-61
2022/06/04 09:37:28;;;;;;;3.55;0.50;;;16.40;59.10;18.50;94035.00;;;;10322428;23;45216;-61
2022/06/04 09:42:50;;;;;;;1.90;0.55;;;16.40;59.10;18.50;94032.00;;;;10314089;28;45120;-62
2022/06/04 09:48:22;;;;;;;4.20;0.60;;;16.40;59.10;18.50;94040.00;;;;10314640;28;45878;-61
2022/06/04 09:53:46;;;;;;;2.78;0.50;;;16.40;59.00;18.50;94032.00;;;;10314572;28;45214;-59
2022/06/04 09:59:19;;;;;;;1.42;0.52;;;16.40;59.00;18.50;94028.00;;;;10314219;28;45146;-59
2022/06/04 10:04:44;;;;;;;0.68;0.40;;;16.40;59.00;18.50;94031.00;;;;10313855;28;45140;-60
2022/06/04 10:10:24;;;;;;;3.80;0.50;;;16.40;59.00;18.50;94030.00;;;;10313301;28;45750;-59
2022/06/04 10:15:48;;;;;;;1.20;0.50;;;16.40;59.50;18.50;94028.00;;;;10313478;28;45829;-59
2022/06/04 10:21:21;;;;;;;3.08;0.55;;;16.40;58.90;18.60;94016.00;;;;10313896;28;45226;-59
2022/06/04 10:27:01;;;;;;;2.50;0.55;;;16.50;59.20;18.60;94030.00;;;;10313033;28;45146;-59
2022/06/04 10:32:36;;;;;;;2.60;0.60;;;16.50;59.30;18.60;94032.00;;;;10313044;28;45866;-59
2022/06/04 10:38:20;;;;;;;2.58;0.50;;;16.50;59.30;18.60;94043.00;;;;10312435;28;45258;-59
2022/06/04 10:44:35;;;;;;;1.52;0.40;;;16.50;59.30;18.60;94042.00;;;;10313564;28;46041;-60
2022/06/04 10:50:20;;;;;;;3.50;0.60;;;16.50;59.50;18.50;94032.00;;;;10313320;28;45887;-60
2022/06/04 10:55:47;;;;;;;3.78;0.70;;;16.40;59.70;18.50;94031.00;;;;10311890;28;45435;-59
2022/06/04 11:01:11;;;;;;;;;;;16.50;59.80;18.60;94052.00;;;;10313326;28;45346;-59
2022/06/04 11:06:36;;;;;;;3.97;0.82;;;16.40;59.60;18.50;94039.00;;;;10312437;28;45194;-61
2022/06/04 11:12:03;;;;;;;3.08;0.90;;;16.50;60.10;18.60;94031.00;;;;10312681;28;45706;-60
2022/06/04 11:17:27;;;;;;;2.40;0.80;;;16.50;60.00;18.50;94033.00;;;;10312221;28;45847;-60
2022/06/04 11:22:59;;;;;;;4.70;0.90;;;16.50;59.60;18.60;94028.00;;;;10313263;28;45834;-61
2022/06/04 11:28:26;;;;;;;3.22;0.90;;;16.50;59.40;18.60;94034.00;;;;10312323;28;45108;-60
2022/06/04 11:34:02;;;;;;;;;;;16.50;59.50;18.60;94022.00;;;;10312063;28;45209;-60
2022/06/04 11:39:47;;;;;;;2.25;0.80;;;16.50;59.00;18.60;94035.00;;;;10311247;28;45182;-59
2022/06/04 11:45:37;;;;;;;3.28;0.98;;;16.50;58.90;18.60;94036.00;;;;10311723;28;45306;-60
2022/06/04 11:51:07;;;;;;;3.20;1.02;;;16.50;59.00;18.60;94031.00;;;;10311769;28;45418;-59
2022/06/04 11:56:36;;;;;;;3.25;0.80;;;16.50;58.80;18.70;94023.00;;;;10310974;28;45324;-59
2022/06/04 12:02:02;;;;;;;1.73;0.80;;;16.60;60.30;18.60;94017.00;;;;10286779;28;45278;-61
2022/06/04 12:07:37;;;;;;;3.00;0.80;;;16.50;59.60;18.60;94024.00;;;;10266523;28;45116;-60
2022/06/04 12:13:05;;;;;;;2.95;1.00;;;16.60;59.10;18.60;94025.00;;;;10275677;28;45107;-60
2022/06/04 12:18:34;;;;;;;2.22;0.82;;;16.50;59.00;18.60;94024.00;;;;10274484;28;45138;-61
2022/06/04 12:24:16;;;;;;;1.90;0.80;;;16.50;58.70;18.60;94021.00;;;;10275229;28;45698;-59
2022/06/04 12:29:46;;;;;;;2.50;0.73;;;16.60;58.80;18.60;94008.00;;;;10268413;28;45193;-60
2022/06/04 12:35:24;;;;;;;3.60;0.95;;;16.60;59.10;18.70;94021.00;;;;10275806;28;45272;-61
2022/06/04 12:40:45;;;;;;;;;;;16.60;59.00;18.70;94021.00;;;;10276885;28;45207;-60
2022/06/04 12:46:29;;;;;;;2.40;1.02;;;16.60;58.70;18.60;94008.00;;;;10276465;28;45155;-60
2022/06/04 12:51:57;;;;;;;4.55;0.80;;;16.60;59.10;18.70;94016.00;;;;10276776;28;45324;-60
2022/06/04 12:57:32;;;;;;;3.42;0.60;;;16.60;58.70;18.70;94018.00;;;;10275394;28;45880;-59
2022/06/04 13:03:34;;;;;;;2.00;0.70;;;16.80;58.80;18.70;94018.00;;;;10275745;28;45192;-60
2022/06/04 13:09:05;;;;;;;1.35;0.60;;;16.60;59.10;18.70;94022.00;;;;10275003;28;45123;-61
2022/06/04 13:14:41;;;;;;;2.38;0.73;;;16.60;58.50;18.70;94006.00;;;;10275390;28;45333;-60
2022/06/04 13:20:31;;;;;;;2.90;0.68;;;16.70;58.80;18.70;94025.00;;;;10306046;28;45175;-60
2022/06/04 13:26:10;;;;;;;3.08;0.80;;;16.70;58.70;18.70;94023.00;;;;10314332;28;45870;-60
2022/06/04 13:31:32;;;;;;;2.00;0.80;;;16.70;58.70;18.80;94022.00;;;;10314829;28;45690;-60
2022/06/04 13:36:58;;;;;;;1.52;0.60;;;16.70;58.80;18.80;94035.00;;;;10307538;28;45862;-59
2022/06/04 13:42:23;;;;;;;0.93;0.60;;;16.70;59.10;18.80;94021.00;;;;10314935;28;45166;-60
2022/06/04 13:47:54;;;;;;;2.47;0.70;;;16.70;58.60;18.80;94024.00;;;;10315185;28;45309;-59
2022/06/04 13:53:19;;;;;;;3.17;0.95;;;16.80;58.40;18.80;94026.00;;;;10314308;28;45782;-59
2022/06/04 13:58:45;;;;;;;3.08;0.80;;;16.70;58.50;18.80;94006.00;;;;10314106;28;45699;-60
2022/06/04 14:09:54;;;;;;;1.75;0.70;;;16.80;59.10;18.80;94004.00;;;;10313698;28;45180;-60
2022/06/04 14:15:28;;;;;;;2.30;0.80;;;16.80;59.10;18.90;94002.00;;;;10314340;28;45206;-60
2022/06/04 14:21:06;;;;;;;1.75;0.80;;;16.80;58.70;18.90;93996.00;;;;10314037;28;45179;-59
2022/06/04 14:26:37;;;;;;;1.83;0.80;;;16.80;58.80;18.90;94011.00;;;;10314509;28;46110;-59
2022/06/04 14:32:13;;;;;;;0.90;0.60;;;16.80;58.70;18.90;94011.00;;;;10314232;28;45251;-59
2022/06/04 14:37:44;;;;;;;1.40;0.53;;;16.80;58.40;18.90;93994.00;;;;10313376;28;45727;-59
2022/06/04 14:43:49;;;;;;;2.88;0.70;;;16.80;58.50;18.90;94005.00;;;;10313470;28;45163;-60
2022/06/04 14:49:37;;;;;;;1.98;0.70;;;16.90;58.60;19.00;93992.00;;;;10312424;28;45124;-60
2022/06/04 14:55:06;;;;;;;3.13;0.80;;;16.90;58.40;19.00;93990.00;;;;10312417;28;45223;-59
2022/06/04 15:00:43;;;;;;;1.98;0.80;;;16.90;58.30;19.00;93983.00;;;;10312616;28;45755;-60
2022/06/04 15:06:07;;;;;;;2.28;0.52;;;16.90;58.10;19.00;93978.00;;;;10312464;28;45277;-60
2022/06/04 15:12:19;;;;;;;1.60;0.70;;;16.90;58.20;19.00;93992.00;;;;10312652;28;45160;-60
2022/06/04 15:17:58;;;;;;;1.83;0.82;;;17.00;58.40;19.10;93984.00;;;;10311999;28;45222;-59
2022/06/04 15:23:48;;;;;;;1.42;0.82;;;17.00;58.40;19.10;93987.00;;;;10309720;28;45338;-58
2022/06/04 15:35:07;;;;;;;2.03;0.75;;;17.00;58.00;19.10;93961.00;;;;10310972;28;45257;-61
2022/06/04 15:40:29;;;;;;;1.63;0.70;;;17.00;58.10;19.10;93953.00;;;;10313163;28;45718;-60
2022/06/04 15:46:01;;;;;;;1.73;0.70;;;17.10;58.00;19.10;93948.00;;;;10319075;28;45694;-60
2022/06/04 15:57:37;;;;;;;2.35;0.73;;;17.10;58.30;19.20;93954.00;;;;10318302;28;45766;-60
2022/06/04 16:02:58;;;;;;;1.77;0.80;;;17.10;57.70;19.20;93930.00;;;;10318312;28;45227;-59
2022/06/04 16:08:20;;;;;;;2.38;0.90;;;17.10;57.60;19.20;93934.00;;;;10305375;28;45674;-60
2022/06/04 16:14:19;;;;;;;1.95;0.60;;;17.20;57.50;19.20;93947.00;;;;10312730;28;45253;-59
2022/06/04 16:20:18;;;;;;;2.70;0.73;;;17.20;57.50;19.20;93943.00;;;;10315182;28;45168;-58
2022/06/04 16:25:47;;;;;;;1.60;0.63;;;17.10;58.00;19.10;93961.00;;;;10312353;28;45703;-60
2022/06/04 16:31:29;;;;;;;1.58;0.80;;;17.10;57.70;19.10;93964.00;;;;10295678;28;45191;-59
2022/06/04 16:36:52;;;;;;;1.80;1.00;;;17.10;57.90;19.10;93979.00;;;;10353539;28;45175;-58
2022/06/04 16:42:16;;;;;;;2.42;0.63;;;17.10;57.80;19.20;93956.00;;;;10354559;28;45190;-59
2022/06/04 16:47:53;;;;;;;1.05;0.60;;;17.10;57.90;19.20;93970.00;;;;10358278;28;45927;-59
2022/06/04 16:53:18;;;;;;;2.10;0.77;;;17.10;57.90;19.10;93966.00;;;;10357713;28;45159;-60
2022/06/04 16:58:38;;;;;;;2.20;0.80;;;17.10;58.30;19.10;93965.00;;;;10357221;28;45267;-59
2022/06/04 17:04:10;;;;;;;1.83;0.70;;;17.00;58.00;19.10;93965.00;;;;10357980;28;45227;-58
2022/06/04 17:09:57;;;;;;;1.90;0.80;;;17.00;58.10;19.20;93975.00;;;;10357333;28;45129;-59
2022/06/04 17:15:29;;;;;;;2.42;0.80;;;17.10;57.70;19.20;93979.00;;;;10357178;28;45776;-59
2022/06/04 17:21:03;;;;;;;1.35;0.70;;;17.10;57.60;19.20;93976.00;;;;10356437;28;45156;-59
2022/06/04 17:26:44;;;;;;;2.45;0.73;;;17.10;57.60;19.20;93982.00;;;;10355702;28;45138;-59
2022/06/04 17:32:14;;;;;;;1.98;0.70;;;17.10;57.50;19.10;93975.00;;;;10355777;28;45150;-59
2022/06/04 17:37:55;;;;;;;2.10;0.77;;;17.10;57.50;19.10;93974.00;;;;10355077;28;45159;-59
2022/06/04 17:43:15;;;;;;;0.90;0.63;;;17.10;57.60;19.10;93978.00;;;;10355197;28;45664;-59
2022/06/04 17:48:36;;;;;;;2.45;0.70;;;17.10;57.60;19.10;93972.00;;;;10354831;28;45096;-59
2022/06/04 17:53:58;;;;;;;2.30;0.63;;;17.10;57.60;19.10;93954.00;;;;10355410;28;45208;-60
2022/06/04 17:59:19;;;;;;;3.70;0.80;;;17.00;57.60;19.10;93955.00;;;;10354734;28;45181;-59
2022/06/04 18:04:39;;;;;;;2.88;0.90;;;17.00;57.50;19.10;93959.00;;;;10334679;28;45193;-59
2022/06/04 18:10:01;;;;;;;2.50;0.82;;;17.00;57.70;19.10;93956.00;;;;10328276;28;45850;-59
2022/06/04 18:15:22;;;;;;;2.60;0.73;;;17.00;57.60;19.10;93964.00;;;;10323329;28;45186;-59
2022/06/04 18:20:43;;;;;;;2.35;0.80;;;17.00;57.60;19.10;93958.00;;;;10336934;28;45101;-59
2022/06/04 18:26:06;;;;;;;2.20;0.90;;;17.00;57.60;19.10;93970.00;;;;10348134;28;45824;-59
2022/06/04 18:31:28;;;;;;;1.48;0.60;;;17.00;57.50;19.00;93958.00;;;;10353858;28;45111;-59
2022/06/04 18:36:50;;;;;;;3.63;0.80;;;17.00;57.60;19.00;93966.00;;;;10353027;28;45783;-59
2022/06/04 18:59:12;;;;;;;1.52;0.77;;;16.90;57.30;19.00;93965.00;;;;10353084;28;45544;-59
2022/06/04 19:04:33;;;;;;;2.35;0.63;;;16.90;57.30;19.00;93978.00;;;;10352959;28;45254;-59
2022/06/04 19:09:55;;;;;;;1.30;0.73;;;16.90;57.20;19.00;93975.00;;;;10353126;28;45284;-59
2022/06/04 19:15:17;;;;;;;1.88;0.60;;;16.90;57.10;19.00;93985.00;;;;10353797;28;45092;-59
2022/06/04 19:26:21;;;;;;;2.50;0.80;;;16.90;57.00;19.00;93973.00;;;;10336852;28;45186;-59
2022/06/04 19:31:45;;;;;;;2.05;0.82;;;16.80;56.90;18.90;93962.00;;;;10359457;28;45149;-59
2022/06/04 19:37:07;;;;;;;1.35;0.88;;;16.80;56.90;18.90;93980.00;;;;10351287;28;45707;-59
2022/06/04 19:42:28;;;;;;;2.13;0.60;;;16.80;56.90;18.90;93957.00;;;;10331026;28;45277;-59
2022/06/04 19:47:52;;;;;;;1.42;0.60;;;16.80;56.90;18.90;93956.00;;;;10398911;28;45091;-59
2022/06/04 19:58:52;;;;;;;1.27;0.70;;;16.80;56.90;18.90;93943.00;;;;10395835;28;45798;-59
2022/06/04 20:04:14;;;;;;;2.90;0.68;;;16.80;56.90;18.90;93967.00;;;;10398999;28;45194;-59
2022/06/04 20:09:34;;;;;;;1.88;0.85;;;16.80;56.90;18.90;93979.00;;;;10398473;28;45123;-60
2022/06/04 20:14:55;;;;;;;1.15;0.60;;;16.80;56.90;18.90;93978.00;;;;10399044;28;45151;-59
2022/06/04 20:20:23;;;;;;;2.47;0.70;;;16.80;56.90;18.90;93972.00;;;;10397719;28;45169;-59
2022/06/04 20:25:47;;;;;;;0.85;0.50;;;16.80;56.90;18.90;93961.00;;;;10398178;28;45793;-59
2022/06/04 20:31:10;;;;;;;2.15;0.70;;;16.80;56.90;18.90;93977.00;;;;10390979;28;45337;-59
2022/06/04 20:36:33;;;;;;;1.70;0.70;;;16.80;56.90;18.90;93965.00;;;;10393925;28;46391;-59
2022/06/04 20:41:54;;;;;;;1.90;0.65;;;16.80;57.00;18.90;93971.00;;;;10398541;28;45204;-59
2022/06/04 20:47:15;;;;;;;0.80;0.63;;;16.80;57.00;18.90;93968.00;;;;10398187;28;46092;-59
2022/06/04 20:52:38;;;;;;;1.52;0.70;;;16.80;57.00;18.90;93968.00;;;;10397898;28;45229;-59
2022/06/04 20:57:58;;;;;;;1.52;0.93;;;16.80;57.00;18.90;93962.00;;;;10397105;28;45746;-59
2022/06/04 21:03:19;;;;;;;0.80;0.60;;;16.80;57.00;18.80;93958.00;;;;10398081;28;45334;-59
2022/06/04 21:08:41;;;;;;;2.85;0.80;;;16.80;57.00;18.80;93951.00;;;;10397048;28;45193;-58
2022/06/04 21:14:01;;;;;;;1.00;0.57;;;16.80;57.00;18.80;93939.00;;;;10397225;28;45713;-59
2022/06/04 21:19:22;;;;;;;0.70;0.55;;;16.80;57.00;18.80;93957.00;;;;10396612;28;45101;-59
2022/06/04 21:24:44;;;;;;;1.73;0.75;;;16.80;57.00;18.80;93943.00;;;;10396409;28;45777;-60
2022/06/04 21:30:06;;;;;;;0.90;0.68;;;16.70;57.00;18.80;93954.00;;;;10396457;28;45154;-59
2022/06/04 21:41:07;;;;;;;1.27;0.55;;;16.70;57.00;18.80;93965.00;;;;10314906;28;45222;-63
2022/06/04 21:46:29;;;;;;;1.58;0.70;;;16.70;57.00;18.80;93946.00;;;;10328508;28;45178;-63
2022/06/04 21:51:50;;;;;;;1.95;0.65;;;16.80;57.00;18.80;93937.00;;;;10355308;28;45241;-63
2022/06/04 21:57:12;;;;;;;2.38;0.60;;;16.80;57.10;18.80;93939.00;;;;10354747;28;45256;-63
2022/06/04 22:02:32;;;;;;;1.35;0.60;;;16.70;57.10;18.80;93927.00;;;;10355099;28;45849;-63
2022/06/04 22:07:55;;;;;;;0.80;0.55;;;16.80;57.10;18.80;93929.00;;;;10355196;28;45639;-63
2022/06/04 22:13:17;;;;;;;1.58;0.60;;;16.70;57.10;18.80;93911.00;;;;10354765;28;45849;-63
2022/06/04 22:18:38;;;;;;;1.10;0.70;;;16.70;57.00;18.80;93931.00;;;;10354165;28;45734;-63
2022/06/04 22:23:59;;;;;;;1.45;0.63;;;16.70;57.10;18.80;93914.00;;;;10354512;28;45563;-63
2022/06/04 22:29:22;;;;;;;1.48;0.73;;;16.70;57.00;18.80;93921.00;;;;10353649;28;45246;-64
2022/06/04 22:34:43;;;;;;;0.65;0.50;;;16.70;57.10;18.80;93916.00;;;;10354247;28;45253;-64
2022/06/04 22:40:04;;;;;;;0.75;0.50;;;16.70;57.10;18.80;93921.00;;;;10354018;28;45168;-63
2022/06/04 22:45:28;;;;;;;1.05;0.60;;;16.70;57.10;18.80;93908.00;;;;10353616;28;45106;-64
2022/06/04 22:50:48;;;;;;;1.58;0.57;;;16.70;57.10;18.80;93890.00;;;;10353195;28;45179;-63
2022/06/04 22:56:10;;;;;;;0.85;0.40;;;16.70;57.00;18.80;93882.00;;;;10353106;28;45182;-64
2022/06/04 23:01:32;;;;;;;1.65;0.57;;;16.70;57.00;18.80;93882.00;;;;10353221;28;45240;-63
2022/06/04 23:06:54;;;;;;;1.35;0.68;;;16.70;57.00;18.80;93874.00;;;;10352692;28;45289;-63
2022/06/04 23:23:37;;;;;;;0.65;0.52;;;16.70;57.00;18.80;93868.00;;;;10352859;28;45251;-63
2022/06/04 23:28:58;;;;;;;0.55;0.50;;;16.70;57.10;18.70;93875.00;;;;10352241;28;45256;-63
2022/06/04 23:34:20;;;;;;;1.55;0.60;;;16.70;57.00;18.80;93890.00;;;;10352331;28;45144;-63
2022/06/04 23:39:41;;;;;;;1.25;0.55;;;16.70;56.90;18.80;93875.00;;;;10351616;28;45194;-64
2022/06/04 23:45:02;;;;;;;0.80;0.50;;;16.70;57.00;18.70;93862.00;;;;10352661;28;45706;-63
2022/06/04 23:50:24;;;;;;;0.98;0.52;;;16.70;57.00;18.70;93853.00;;;;10352261;28;45755;-63
2022/06/04 23:55:44;;;;;;;0.63;0.50;;;16.60;56.90;18.70;93848.00;;;;10351212;28;45187;-63
